sensor_id;sensor_type;location;lat;lon;timestamp;P1;durP1;ratioP1;P2;durP2;ratioP2
73437;SDS011;66471;56.532;21.020;2023-06-22T07:12:44;35.60;;;20.70;;
73437;SDS011;66471;56.532;21.020;2023-06-22T07:15:11;28.58;;;18.95;;
73437;SDS011;66471;56.532;21.020;2023-06-22T07:17:40;29.10;;;19.05;;
73437;SDS011;66471;56.532;21.020;2023-06-22T07:20:08;31.77;;;19.10;;
73437;SDS011;66471;56.532;21.020;2023-06-22T07:22:37;28.83;;;17.97;;
73437;SDS011;66471;56.532;21.020;2023-06-22T07:25:05;26.00;;;19.58;;
73437;SDS011;66471;56.532;21.020;2023-06-22T07:27:43;26.95;;;18.75;;
73437;SDS011;66471;56.532;21.020;2023-06-22T07:30:23;23.10;;;17.58;;
73437;SDS011;66471;56.532;21.020;2023-06-22T07:32:58;23.95;;;15.55;;
73437;SDS011;66471;56.532;21.020;2023-06-22T07:36:08;23.27;;;14.30;;
73437;SDS011;66471;56.532;21.020;2023-06-22T07:38:35;26.02;;;15.75;;
73437;SDS011;66471;56.532;21.020;2023-06-22T07:41:02;22.23;;;14.93;;
73437;SDS011;66471;56.532;21.020;2023-06-22T07:43:32;23.58;;;14.48;;
73437;SDS011;66471;56.532;21.020;2023-06-22T07:46:01;20.65;;;13.45;;
73437;SDS011;66471;56.532;21.020;2023-06-22T07:48:28;23.03;;;13.03;;
73437;SDS011;66471;56.532;21.020;2023-06-22T07:50:55;18.17;;;12.45;;
73437;SDS011;66471;56.532;21.020;2023-06-22T07:53:23;24.23;;;13.15;;
73437;SDS011;66471;56.532;21.020;2023-06-22T07:55:50;21.23;;;11.60;;
73437;SDS011;66471;56.532;21.020;2023-06-22T07:58:17;17.95;;;11.65;;
73437;SDS011;66471;56.532;21.020;2023-06-22T08:00:45;15.57;;;10.77;;
73437;SDS011;66471;56.532;21.020;2023-06-22T08:03:13;18.77;;;11.57;;
73437;SDS011;66471;56.532;21.020;2023-06-22T08:05:40;22.48;;;11.70;;
73437;SDS011;66471;56.532;21.020;2023-06-22T08:08:07;17.70;;;11.32;;
73437;SDS011;66471;56.532;21.020;2023-06-22T08:10:34;19.20;;;11.95;;
73437;SDS011;66471;56.532;21.020;2023-06-22T08:13:02;19.30;;;11.87;;
73437;SDS011;66471;56.532;21.020;2023-06-22T08:15:29;18.33;;;11.52;;
73437;SDS011;66471;56.532;21.020;2023-06-22T08:17:57;17.33;;;12.18;;
73437;SDS011;66471;56.532;21.020;2023-06-22T08:20:25;18.75;;;12.18;;
73437;SDS011;66471;56.532;21.020;2023-06-22T08:22:53;17.60;;;12.45;;
73437;SDS011;66471;56.532;21.020;2023-06-22T08:25:21;20.70;;;11.70;;
73437;SDS011;66471;56.532;21.020;2023-06-22T08:27:49;23.20;;;11.23;;
73437;SDS011;66471;56.532;21.020;2023-06-22T08:30:16;21.58;;;11.85;;
73437;SDS011;66471;56.532;21.020;2023-06-22T08:32:45;19.55;;;11.07;;
73437;SDS011;66471;56.532;21.020;2023-06-22T08:35:12;17.85;;;11.88;;
73437;SDS011;66471;56.532;21.020;2023-06-22T08:37:39;18.00;;;10.67;;
73437;SDS011;66471;56.532;21.020;2023-06-22T08:40:07;14.95;;;10.85;;
73437;SDS011;66471;56.532;21.020;2023-06-22T08:42:36;17.30;;;11.27;;
73437;SDS011;66471;56.532;21.020;2023-06-22T08:45:04;18.77;;;10.60;;
73437;SDS011;66471;56.532;21.020;2023-06-22T08:47:32;17.83;;;11.90;;
73437;SDS011;66471;56.532;21.020;2023-06-22T08:49:59;15.07;;;10.17;;
73437;SDS011;66471;56.532;21.020;2023-06-22T08:52:29;14.98;;;10.15;;
73437;SDS011;66471;56.532;21.020;2023-06-22T08:54:57;15.68;;;10.30;;
73437;SDS011;66471;56.532;21.020;2023-06-22T08:57:27;14.98;;;10.35;;
73437;SDS011;66471;56.532;21.020;2023-06-22T08:59:55;14.50;;;9.70;;
73437;SDS011;66471;56.532;21.020;2023-06-22T09:02:25;15.43;;;9.27;;
73437;SDS011;66471;56.532;21.020;2023-06-22T09:04:57;13.57;;;8.82;;
73437;SDS011;66471;56.532;21.020;2023-06-22T09:07:25;12.77;;;8.55;;
73437;SDS011;66471;56.532;21.020;2023-06-22T09:09:52;13.70;;;7.97;;
73437;SDS011;66471;56.532;21.020;2023-06-22T09:12:20;14.50;;;9.15;;
73437;SDS011;66471;56.532;21.020;2023-06-22T09:14:49;13.00;;;7.80;;
73437;SDS011;66471;56.532;21.020;2023-06-22T09:17:16;13.43;;;7.35;;
73437;SDS011;66471;56.532;21.020;2023-06-22T09:19:46;10.38;;;7.57;;
73437;SDS011;66471;56.532;21.020;2023-06-22T09:22:14;19.52;;;11.07;;
73437;SDS011;66471;56.532;21.020;2023-06-22T09:24:41;15.63;;;8.90;;
73437;SDS011;66471;56.532;21.020;2023-06-22T09:27:08;14.67;;;8.53;;
73437;SDS011;66471;56.532;21.020;2023-06-22T09:29:35;15.45;;;8.80;;
73437;SDS011;66471;56.532;21.020;2023-06-22T09:32:02;14.65;;;8.50;;
73437;SDS011;66471;56.532;21.020;2023-06-22T09:34:30;12.63;;;7.57;;
73437;SDS011;66471;56.532;21.020;2023-06-22T09:36:58;14.60;;;7.40;;
73437;SDS011;66471;56.532;21.020;2023-06-22T09:39:27;12.40;;;7.90;;
73437;SDS011;66471;56.532;21.020;2023-06-22T09:41:54;14.75;;;7.53;;
73437;SDS011;66471;56.532;21.020;2023-06-22T09:44:21;13.10;;;7.78;;
73437;SDS011;66471;56.532;21.020;2023-06-22T09:46:48;12.38;;;7.50;;
73437;SDS011;66471;56.532;21.020;2023-06-22T09:49:15;13.63;;;7.97;;
73437;SDS011;66471;56.532;21.020;2023-06-22T09:51:42;13.17;;;7.90;;
73437;SDS011;66471;56.532;21.020;2023-06-22T09:54:09;11.15;;;7.18;;
73437;SDS011;66471;56.532;21.020;2023-06-22T09:56:36;14.80;;;7.75;;
73437;SDS011;66471;56.532;21.020;2023-06-22T09:59:04;15.13;;;7.68;;
73437;SDS011;66471;56.532;21.020;2023-06-22T10:01:44;13.05;;;7.50;;
73437;SDS011;66471;56.532;21.020;2023-06-22T10:04:11;14.07;;;7.77;;
73437;SDS011;66471;56.532;21.020;2023-06-22T10:06:38;12.63;;;7.22;;
73437;SDS011;66471;56.532;21.020;2023-06-22T10:09:07;11.43;;;7.32;;
73437;SDS011;66471;56.532;21.020;2023-06-22T10:11:34;12.73;;;7.43;;
73437;SDS011;66471;56.532;21.020;2023-06-22T10:14:02;12.57;;;7.47;;
73437;SDS011;66471;56.532;21.020;2023-06-22T10:16:31;10.27;;;6.10;;
